Time;durP1;ratioP1;P1;durP2;ratioP2;P2;SDS_P1;SDS_P2;PMS_P1;PMS_P2;Temp;Humidity;BMP_temperature;BMP_pressure;BME280_temperature;BME280_humidity;BME280_pressure;Samples;Min_cycle;Max_cycle;Signal;HPM_P1;HPM_P2
2023/09/14 00:01:56;;;;;;;6.00;2.95;;;;;;;;;;5002659;28;20055;-85
2023/09/14 00:04:22;;;;;;;4.25;2.42;;;;;;;;;;5001458;28;20032;-86
2023/09/14 00:06:49;;;;;;;3.58;2.03;;;17.50;99.90;;;;;;5005187;28;20026;-85
2023/09/14 00:09:14;;;;;;;4.28;1.80;;;;;;;;;;5001242;28;20256;-88
2023/09/14 00:11:40;;;;;;;6.70;3.35;;;;;;;;;;5002809;28;20045;-88
2023/09/14 00:14:06;;;;;;;4.90;2.35;;;;;;;;;;4998035;28;20022;-84
2023/09/14 00:16:32;;;;;;;2.85;2.03;;;;;;;;;;5005018;28;20115;-86
2023/09/14 00:18:58;;;;;;;4.10;2.58;;;;;;;;;;5003168;28;20499;-86
2023/09/14 00:21:24;;;;;;;5.40;2.08;;;;;;;;;;4999255;28;20088;-87
2023/09/14 00:23:50;;;;;;;5.00;2.33;;;;;;;;;;5001600;28;20027;-86
2023/09/14 00:26:16;;;;;;;6.32;2.17;;;;;;;;;;5003069;28;20045;-86
2023/09/14 00:28:42;;;;;;;5.10;2.40;;;;;;;;;;5004227;28;20057;-87
2023/09/14 00:31:08;;;;;;;6.25;2.08;;;;;;;;;;5002865;28;20054;-86
2023/09/14 00:33:34;;;;;;;5.28;2.20;;;;;;;;;;5006624;28;20092;-86
2023/09/14 00:36:00;;;;;;;4.55;2.60;;;;;;;;;;5001403;28;20125;-85
2023/09/14 00:38:25;;;;;;;4.45;2.35;;;17.50;99.90;;;;;;4998696;28;20028;-85
2023/09/14 00:40:51;;;;;;;4.40;2.10;;;;;;;;;;4998839;28;20307;-84
2023/09/14 00:43:19;;;;;;;5.40;2.63;;;;;;;;;;4999613;28;20646;-85
2023/09/14 00:45:45;;;;;;;3.60;1.88;;;;;;;;;;5001333;28;20029;-86
2023/09/14 00:48:11;;;;;;;5.03;1.90;;;;;;;;;;5002217;28;20056;-87
2023/09/14 00:50:37;;;;;;;3.70;2.20;;;18.40;99.90;;;;;;4993121;28;20046;-85
2023/09/14 00:53:10;;;;;;;4.05;1.92;;;17.30;99.90;;;;;;5004515;28;20722;-88
2023/09/14 00:55:36;;;;;;;4.43;1.70;;;;;;;;;;4997087;28;20031;-85
2023/09/14 00:58:02;;;;;;;4.40;2.00;;;;;;;;;;4999077;28;20416;-86
2023/09/14 01:00:29;;;;;;;4.10;1.85;;;17.00;99.90;;;;;;5001787;28;20194;-81
2023/09/14 01:02:56;;;;;;;3.88;1.85;;;17.10;99.90;;;;;;4999919;28;20105;-85
2023/09/14 01:05:23;;;;;;;2.05;1.38;;;16.60;99.90;;;;;;4996564;28;20028;-84
2023/09/14 01:07:49;;;;;;;3.10;1.55;;;;;;;;;;4995741;28;20547;-85
2023/09/14 01:10:15;;;;;;;3.33;1.73;;;;;;;;;;4998951;28;20145;-86
2023/09/14 01:12:47;;;;;;;3.75;2.30;;;16.80;99.90;;;;;;5010268;28;20389;-83
2023/09/14 01:15:19;;;;;;;5.97;2.20;;;;;;;;;;4993155;28;20034;-88
2023/09/14 01:18:11;;;;;;;2.63;1.42;;;17.30;99.90;;;;;;4993386;28;20064;-85
2023/09/14 01:20:51;;;;;;;2.75;1.55;;;16.30;99.90;;;;;;4993686;28;20038;-84
2023/09/14 01:23:26;;;;;;;5.07;1.75;;;17.10;99.90;;;;;;4997733;28;20026;-87
2023/09/14 01:25:54;;;;;;;3.15;1.30;;;;;;;;;;4995748;28;20030;-83
2023/09/14 01:28:20;;;;;;;5.45;2.25;;;;;;;;;;4992616;28;20046;-84
2023/09/14 01:30:46;;;;;;;2.58;1.75;;;;;;;;;;4991578;28;20166;-86
2023/09/14 01:33:14;;;;;;;2.78;1.00;;;;;;;;;;4994353;28;20029;-84
2023/09/14 01:36:03;;;;;;;3.58;1.65;;;15.90;99.90;;;;;;4990770;28;20038;-85
2023/09/14 01:38:30;;;;;;;3.75;1.55;;;;;;;;;;5001819;28;20042;-82
2023/09/14 01:40:57;;;;;;;6.60;1.75;;;16.20;99.90;;;;;;4997214;28;20461;-83
2023/09/14 01:43:23;;;;;;;3.47;1.45;;;;;;;;;;4995896;28;21561;-85
2023/09/14 01:45:50;;;;;;;3.88;1.42;;;16.50;99.90;;;;;;4994418;28;20109;-82
2023/09/14 01:48:18;;;;;;;5.22;1.92;;;;;;;;;;5004490;28;20033;-82
2023/09/14 01:50:44;;;;;;;3.45;1.73;;;;;;;;;;4995643;28;20069;-86
2023/09/14 01:53:10;;;;;;;1.85;1.30;;;;;;;;;;5000393;28;20464;-84
2023/09/14 01:55:36;;;;;;;3.22;1.20;;;;;;;;;;4997661;28;20481;-87
2023/09/14 01:58:02;;;;;;;3.58;1.50;;;;;;;;;;4997299;28;20036;-83
2023/09/14 02:00:28;;;;;;;3.28;1.20;;;15.50;99.90;;;;;;5000954;28;20026;-83
2023/09/14 02:02:54;;;;;;;2.70;1.27;;;;;;;;;;5000295;28;20109;-83
2023/09/14 02:05:20;;;;;;;2.08;1.13;;;;;;;;;;4996901;28;20026;-84
2023/09/14 02:07:46;;;;;;;2.45;0.98;;;;;;;;;;4999565;28;20024;-84
2023/09/14 02:10:13;;;;;;;1.75;0.88;;;;;;;;;;4994317;28;20044;-83
2023/09/14 02:12:39;;;;;;;3.58;0.93;;;;;;;;;;4997271;28;20118;-84
2023/09/14 02:15:05;;;;;;;2.42;0.95;;;;;;;;;;4997424;28;21084;-83
2023/09/14 02:17:31;;;;;;;6.75;1.40;;;;;;;;;;4997670;28;20029;-87
2023/09/14 02:19:58;;;;;;;3.50;1.40;;;;;;;;;;4993934;28;20481;-85
2023/09/14 02:22:24;;;;;;;1.83;1.00;;;;;;;;;;4995288;28;20037;-81
2023/09/14 02:24:49;;;;;;;3.13;1.10;;;14.90;99.90;;;;;;5003195;28;20079;-82
2023/09/14 02:27:15;;;;;;;3.22;1.13;;;;;;;;;;4999479;28;20097;-85
2023/09/14 02:29:41;;;;;;;1.77;0.93;;;;;;;;;;4999957;28;20041;-86
2023/09/14 02:32:08;;;;;;;5.28;1.33;;;14.80;99.90;;;;;;4995758;28;20040;-83
2023/09/14 02:34:34;;;;;;;2.78;1.15;;;;;;;;;;4991633;28;20041;-86
2023/09/14 02:37:00;;;;;;;1.83;0.90;;;;;;;;;;4986857;28;20030;-84
2023/09/14 02:39:26;;;;;;;2.30;1.15;;;;;;;;;;4995683;28;20487;-85
2023/09/14 02:41:52;;;;;;;2.13;1.23;;;;;;;;;;4995163;28;20057;-85
2023/09/14 02:44:18;;;;;;;2.10;0.95;;;;;;;;;;4994990;28;20037;-82
2023/09/14 02:46:44;;;;;;;2.10;0.93;;;14.70;99.90;;;;;;4990932;28;20035;-81
2023/09/14 02:49:10;;;;;;;2.08;1.17;;;;;;;;;;4997025;28;20037;-83
2023/09/14 02:51:35;;;;;;;5.97;1.52;;;;;;;;;;4994777;28;20050;-83
2023/09/14 02:54:02;;;;;;;3.03;1.52;;;;;;;;;;4996469;28;20092;-82
2023/09/14 02:56:28;;;;;;;3.20;0.95;;;14.70;99.90;;;;;;4997365;28;20113;-84
2023/09/14 02:58:54;;;;;;;4.53;1.20;;;;;;;;;;4997554;28;20022;-84
2023/09/14 03:01:20;;;;;;;3.47;1.27;;;;;;;;;;4997879;28;20116;-84
2023/09/14 03:03:47;;;;;;;1.67;0.82;;;;;;;;;;4992785;28;20027;-84
2023/09/14 03:06:13;;;;;;;2.35;1.00;;;14.50;99.90;;;;;;4993429;28;20030;-83
2023/09/14 03:08:39;;;;;;;4.35;1.13;;;;;;;;;;4997280;28;20045;-84
2023/09/14 03:11:05;;;;;;;3.35;1.27;;;;;;;;;;4997283;28;20784;-83
2023/09/14 03:13:31;;;;;;;1.60;0.88;;;;;;;;;;4997274;28;20033;-83
2023/09/14 03:15:58;;;;;;;1.73;0.90;;;14.90;99.90;;;;;;5000246;28;20440;-83
2023/09/14 03:18:24;;;;;;;7.53;1.48;;;;;;;;;;5022739;28;20037;-88
2023/09/14 03:20:54;;;;;;;0.93;0.70;;;14.50;99.90;;;;;;5028496;28;20182;-88
2023/09/14 03:23:21;;;;;;;2.80;1.27;;;;;;;;;;5019781;28;20034;-86
2023/09/14 03:25:48;;;;;;;1.98;1.00;;;;;;;;;;5007457;28;20034;-85
2023/09/14 03:28:14;;;;;;;2.58;1.08;;;14.90;99.90;;;;;;5002658;28;20030;-85
2023/09/14 03:30:40;;;;;;;3.47;1.00;;;;;;;;;;5007741;28;20125;-86
2023/09/14 03:33:06;;;;;;;7.03;1.45;;;14.70;99.90;;;;;;5007370;28;20120;-86
2023/09/14 03:35:32;;;;;;;3.63;1.00;;;;;;;;;;5008040;28;20018;-85
2023/09/14 03:37:58;;;;;;;1.75;1.17;;;14.70;99.90;;;;;;5007732;28;20038;-85
2023/09/14 03:40:24;;;;;;;2.70;1.23;;;;;;;;;;5008896;28;20460;-86
2023/09/14 03:42:50;;;;;;;3.10;1.25;;;;;;;;;;5004043;28;20113;-84
2023/09/14 03:45:16;;;;;;;3.00;1.13;;;;;;;;;;5005304;28;20097;-84
2023/09/14 03:47:42;;;;;;;3.55;1.33;;;;;;;;;;5000731;28;20953;-84
2023/09/14 03:50:09;;;;;;;1.67;0.90;;;14.50;99.90;;;;;;4996651;28;20042;-84
2023/09/14 03:52:35;;;;;;;3.50;1.25;;;;;;;;;;5001426;28;20057;-85
2023/09/14 03:55:01;;;;;;;3.70;1.15;;;;;;;;;;4998747;28;20073;-83
2023/09/14 03:57:28;;;;;;;2.10;1.20;;;;;;;;;;4993321;28;20184;-86
2023/09/14 03:59:54;;;;;;;2.70;1.58;;;;;;;;;;4987723;28;20034;-84
2023/09/14 04:02:20;;;;;;;4.07;1.67;;;;;;;;;;4984509;28;20064;-82
2023/09/14 04:04:46;;;;;;;2.83;1.00;;;;;;;;;;4990128;28;20033;-85
2023/09/14 04:07:12;;;;;;;2.83;1.25;;;;;;;;;;5001577;28;20026;-84
2023/09/14 04:09:38;;;;;;;2.55;0.93;;;;;;;;;;4996355;28;20028;-83
2023/09/14 04:12:05;;;;;;;3.85;1.35;;;;;;;;;;4997709;28;20044;-86
2023/09/14 04:14:31;;;;;;;1.92;1.15;;;;;;;;;;4997401;28;20084;-83
2023/09/14 04:16:59;;;;;;;1.60;0.70;;;;;;;;;;4996158;28;20065;-88
2023/09/14 04:19:25;;;;;;;2.40;1.63;;;14.20;99.90;;;;;;4992118;28;20037;-83
2023/09/14 04:21:51;;;;;;;3.75;1.42;;;;;;;;;;4993332;28;20030;-83
2023/09/14 04:24:17;;;;;;;2.40;1.40;;;;;;;;;;4994631;28;20042;-87
2023/09/14 04:26:43;;;;;;;1.88;1.08;;;;;;;;;;4993121;28;20395;-84
2023/09/14 04:29:09;;;;;;;3.75;1.23;;;;;;;;;;4992493;28;20041;-85
2023/09/14 04:31:35;;;;;;;3.13;1.40;;;;;;;;;;4986883;28;20045;-89
2023/09/14 04:34:19;;;;;;;1.58;0.75;;;;;;;;;;4985212;28;20033;-84
2023/09/14 04:36:45;;;;;;;5.35;1.45;;;;;;;;;;4991988;28;20029;-83
2023/09/14 04:39:11;;;;;;;2.95;1.58;;;;;;;;;;4988577;28;20408;-83
2023/09/14 04:41:37;;;;;;;4.38;0.90;;;;;;;;;;4997751;28;20256;-83
2023/09/14 04:44:03;;;;;;;2.67;1.30;;;;;;;;;;4991122;28;20060;-86
2023/09/14 04:46:29;;;;;;;2.22;1.13;;;;;;;;;;4998716;28;20044;-83
2023/09/14 04:48:55;;;;;;;2.45;1.20;;;;;;;;;;4996518;28;20105;-86
2023/09/14 04:51:23;;;;;;;4.50;1.02;;;;;;;;;;4999195;28;20035;-86
2023/09/14 04:53:49;;;;;;;2.58;1.35;;;;;;;;;;5002240;28;20120;-87
2023/09/14 04:56:15;;;;;;;4.03;1.23;;;;;;;;;;5003907;28;20037;-85
2023/09/14 04:58:41;;;;;;;3.30;1.25;;;;;;;;;;5002603;28;20034;-86
2023/09/14 05:01:07;;;;;;;3.28;1.10;;;;;;;;;;5003810;28;20062;-84
2023/09/14 05:03:33;;;;;;;2.97;1.23;;;;;;;;;;4998436;28;20034;-84
2023/09/14 05:05:59;;;;;;;1.73;0.75;;;;;;;;;;4999171;28;20064;-86
2023/09/14 05:08:25;;;;;;;6.97;1.50;;;;;;;;;;4999853;28;20547;-84
2023/09/14 05:10:52;;;;;;;3.45;1.33;;;;;;;;;;5000009;28;20045;-85
2023/09/14 05:13:20;;;;;;;2.75;1.00;;;;;;;;;;5001951;28;20094;-86
2023/09/14 05:15:46;;;;;;;2.67;1.08;;;;;;;;;;5004500;28;20540;-83
2023/09/14 05:18:12;;;;;;;5.63;1.45;;;;;;;;;;5003028;28;20061;-83
2023/09/14 05:20:46;;;;;;;4.53;1.00;;;14.30;99.90;;;;;;5002477;28;20029;-84
2023/09/14 05:23:12;;;;;;;2.78;1.15;;;14.50;99.90;;;;;;4993542;28;20030;-85
2023/09/14 05:25:38;;;;;;;3.85;1.27;;;;;;;;;;5002487;28;20034;-87
2023/09/14 05:28:04;;;;;;;1.23;0.60;;;;;;;;;;4997495;28;20064;-89
2023/09/14 05:30:32;;;;;;;9.82;1.08;;;;;;;;;;4998081;28;20038;-84
2023/09/14 05:32:58;;;;;;;4.55;1.48;;;14.50;99.90;;;;;;4997361;28;20060;-84
2023/09/14 05:35:23;;;;;;;3.00;1.17;;;;;;;;;;5000247;28;20045;-85
2023/09/14 05:37:51;;;;;;;5.70;2.75;;;;;;;;;;4996502;28;20025;-90
2023/09/14 05:40:17;;;;;;;4.65;1.48;;;;;;;;;;4997246;28;20567;-86
2023/09/14 05:42:43;;;;;;;4.95;1.20;;;;;;;;;;5002195;28;20217;-85
2023/09/14 05:45:10;;;;;;;2.97;1.40;;;14.40;99.90;;;;;;5003291;28;20049;-87
2023/09/14 05:47:36;;;;;;;60.13;6.15;;;;;;;;;;5005975;28;20087;-85
2023/09/14 05:50:03;;;;;;;7.65;1.95;;;14.60;99.90;;;;;;5003267;28;20038;-83
2023/09/14 05:52:30;;;;;;;3.30;2.03;;;;;;;;;;5001121;28;20037;-86
2023/09/14 05:54:55;;;;;;;2.97;1.40;;;14.50;99.90;;;;;;5002586;28;20484;-85
2023/09/14 05:57:21;;;;;;;4.18;1.95;;;;;;;;;;4998667;28;20037;-87
2023/09/14 05:59:47;;;;;;;3.20;1.63;;;;;;;;;;5001640;28;20022;-88
2023/09/14 06:02:13;;;;;;;5.57;2.00;;;;;;;;;;5003341;28;20117;-86
2023/09/14 06:04:40;;;;;;;5.10;2.10;;;;;;;;;;5003250;28;20048;-84
2023/09/14 06:07:05;;;;;;;6.03;2.13;;;14.70;99.90;;;;;;5002543;28;20018;-87
2023/09/14 06:09:31;;;;;;;7.78;1.92;;;;;;;;;;5000196;28;20112;-88
2023/09/14 06:11:57;;;;;;;7.80;1.60;;;;;;;;;;4998190;28;20151;-87
2023/09/14 06:14:23;;;;;;;3.92;1.80;;;;;;;;;;4998176;28;20042;-87
2023/09/14 06:16:49;;;;;;;5.03;1.90;;;;;;;;;;4998446;28;20034;-88
2023/09/14 06:19:15;;;;;;;3.20;1.17;;;;;;;;;;5000522;28;20026;-87
2023/09/14 06:21:41;;;;;;;15.00;2.58;;;;;;;;;;4997483;28;20032;-87
2023/09/14 06:24:07;;;;;;;3.60;1.10;;;;;;;;;;4999132;28;20162;-86
2023/09/14 06:26:34;;;;;;;2.20;0.95;;;;;;;;;;5002213;28;20044;-87
2023/09/14 06:29:00;;;;;;;5.72;1.35;;;;;;;;;;5000102;28;20030;-87
2023/09/14 06:31:26;;;;;;;6.57;1.35;;;;;;;;;;4999835;28;20030;-85
2023/09/14 06:33:52;;;;;;;4.88;1.75;;;;;;;;;;4998216;28;20026;-81
2023/09/14 06:36:18;;;;;;;4.75;1.80;;;;;;;;;;5000549;28;20196;-82
2023/09/14 06:38:47;;;;;;;4.93;2.40;;;16.10;99.90;;;;;;4997108;28;20038;-85
2023/09/14 06:41:14;;;;;;;6.10;2.60;;;;;;;;;;5001258;28;20054;-85
2023/09/14 06:43:42;;;;;;;5.85;1.42;;;15.70;99.90;;;;;;4997642;28;20038;-85
2023/09/14 06:46:09;;;;;;;4.20;1.15;;;15.80;99.90;;;;;;4997455;28;20125;-83
2023/09/14 06:48:35;;;;;;;6.57;1.15;;;;;;;;;;4996922;28;20112;-85
2023/09/14 06:51:01;;;;;;;2.90;1.50;;;;;;;;;;4998460;28;20146;-84
2023/09/14 06:53:27;;;;;;;3.65;1.27;;;;;;;;;;5003317;28;20061;-83
2023/09/14 06:55:53;;;;;;;2.42;1.05;;;;;;;;;;4999818;28;20034;-82
2023/09/14 06:58:19;;;;;;;5.90;1.52;;;;;;;;;;4999719;28;20039;-87
2023/09/14 07:00:46;;;;;;;23.38;3.58;;;;;;;;;;4998969;28;20026;-82
2023/09/14 07:03:11;;;;;;;11.57;1.98;;;;;;;;;;4999798;28;20037;-84
2023/09/14 07:05:37;;;;;;;5.90;1.67;;;;;;;;;;4999103;28;20033;-83
2023/09/14 07:08:04;;;;;;;3.42;1.30;;;;;;;;;;5000675;28;20113;-84
2023/09/14 07:10:29;;;;;;;3.17;1.33;;;16.90;99.90;;;;;;5002443;28;20038;-83
2023/09/14 07:12:56;;;;;;;3.33;1.48;;;;;;;;;;4999182;28;20512;-84
2023/09/14 07:15:22;;;;;;;3.08;1.40;;;;;;;;;;4998205;28;20038;-84
2023/09/14 07:17:48;;;;;;;4.13;1.42;;;;;;;;;;5003400;28;20026;-83
2023/09/14 07:20:14;;;;;;;4.20;1.88;;;;;;;;;;5004182;28;20476;-87
2023/09/14 07:22:40;;;;;;;5.93;2.13;;;;;;;;;;5002917;28;20026;-84
2023/09/14 07:25:08;;;;;;;4.63;1.30;;;17.10;99.90;;;;;;4999386;28;20456;-84
2023/09/14 07:27:34;;;;;;;6.05;1.60;;;;;;;;;;5004403;28;20492;-85
2023/09/14 07:30:00;;;;;;;5.65;1.75;;;;;;;;;;5009206;28;20053;-89
2023/09/14 07:32:26;;;;;;;4.07;1.92;;;;;;;;;;5025358;28;20030;-90
2023/09/14 07:34:53;;;;;;;3.50;1.48;;;;;;;;;;5015499;28;20258;-86
2023/09/14 07:37:19;;;;;;;4.80;1.77;;;;;;;;;;5008323;28;20082;-87
2023/09/14 07:39:46;;;;;;;7.85;2.08;;;;;;;;;;5002921;28;20493;-85
2023/09/14 07:42:11;;;;;;;5.97;1.58;;;;;;;;;;5003535;28;20041;-86
2023/09/14 07:44:37;;;;;;;5.55;1.65;;;;;;;;;;5002837;28;20034;-85
2023/09/14 07:47:03;;;;;;;4.43;1.58;;;;;;;;;;5002494;28;20124;-86
2023/09/14 07:49:29;;;;;;;3.13;1.15;;;;;;;;;;4999815;28;20141;-88
2023/09/14 07:51:56;;;;;;;3.80;1.58;;;;;;;;;;5002316;28;20090;-85
2023/09/14 07:54:22;;;;;;;3.85;1.55;;;;;;;;;;4995911;28;20400;-85
2023/09/14 07:56:47;;;;;;;3.78;1.10;;;18.10;99.90;;;;;;5002457;28;20034;-84
2023/09/14 07:59:13;;;;;;;4.57;1.42;;;;;;;;;;4999499;28;20034;-86
2023/09/14 08:01:39;;;;;;;4.70;1.65;;;;;;;;;;5002114;28;20030;-88
2023/09/14 08:04:05;;;;;;;3.55;1.48;;;;;;;;;;5002619;28;20098;-89
2023/09/14 08:06:33;;;;;;;4.82;1.35;;;;;;;;;;5002893;28;20030;-87
2023/09/14 08:08:59;;;;;;;4.38;1.52;;;;;;;;;;5010482;28;20018;-88
2023/09/14 08:11:27;;;;;;;4.60;1.67;;;;;;;;;;5006041;28;20541;-85
2023/09/14 08:13:53;;;;;;;5.22;1.58;;;;;;;;;;5001560;28;22021;-86
2023/09/14 08:16:19;;;;;;;3.42;1.75;;;;;;;;;;5006398;28;20029;-86
2023/09/14 08:18:45;;;;;;;6.70;1.38;;;;;;;;;;5004327;28;20109;-87
2023/09/14 08:21:11;;;;;;;4.30;1.42;;;;;;;;;;5002620;28;20040;-87
2023/09/14 08:23:37;;;;;;;6.30;1.80;;;;;;;;;;5004646;28;20054;-86
2023/09/14 08:26:06;;;;;;;4.90;2.03;;;17.90;99.90;;;;;;5008648;28;20049;-86
2023/09/14 08:28:32;;;;;;;7.95;2.80;;;18.80;99.90;;;;;;5005617;28;20026;-84
2023/09/14 08:30:58;;;;;;;5.43;1.45;;;;;;;;;;5005636;28;20038;-86
2023/09/14 08:33:24;;;;;;;4.40;1.90;;;;;;;;;;5000658;28;20620;-87
2023/09/14 08:35:49;;;;;;;5.22;1.52;;;;;;;;;;4999474;28;20092;-84
2023/09/14 08:38:15;;;;;;;3.15;1.38;;;;;;;;;;5001660;28;20510;-86
2023/09/14 08:40:42;;;;;;;4.32;1.17;;;;;;;;;;5011464;28;20373;-89
2023/09/14 08:43:11;;;;;;;2.45;0.90;;;18.50;99.90;;;;;;5004167;28;20029;-86
2023/09/14 08:45:38;;;;;;;4.35;1.20;;;;;;;;;;5001373;28;20030;-86
2023/09/14 08:48:05;;;;;;;4.30;1.25;;;18.50;99.90;;;;;;5003940;28;20393;-87
2023/09/14 08:50:31;;;;;;;5.43;2.38;;;;;;;;;;5002753;28;20565;-86
2023/09/14 08:52:58;;;;;;;3.25;1.10;;;19.50;99.90;;;;;;5001139;28;20607;-86
2023/09/14 08:55:24;;;;;;;3.63;1.20;;;;;;;;;;5006349;28;20033;-85
2023/09/14 08:57:51;;;;;;;3.30;1.33;;;18.20;99.90;;;;;;4999445;28;20083;-85
2023/09/14 09:00:18;;;;;;;6.28;2.05;;;;;;;;;;5000332;28;20156;-87
2023/09/14 09:02:49;;;;;;;2.60;1.30;;;19.00;99.90;;;;;;4996919;28;20481;-85
2023/09/14 09:05:16;;;;;;;6.40;1.70;;;;;;;;;;5003678;28;20041;-87
2023/09/14 09:07:43;;;;;;;4.07;1.35;;;19.10;99.90;;;;;;5003325;28;20046;-82
2023/09/14 09:10:24;;;;;;;2.33;1.23;;;19.70;99.90;;;;;;5002145;28;20048;-86
2023/09/14 09:12:51;;;;;;;5.00;1.45;;;20.20;99.90;;;;;;5002736;28;20032;-86
2023/09/14 09:15:17;;;;;;;3.33;1.23;;;;;;;;;;5000603;28;20480;-82
2023/09/14 09:17:46;;;;;;;4.13;1.80;;;;;;;;;;5003236;28;20064;-84
2023/09/14 09:20:19;;;;;;;3.50;1.55;;;19.30;99.90;;;;;;5000480;28;20138;-88
2023/09/14 09:22:45;;;;;;;4.78;1.73;;;;;;;;;;5003073;28;20032;-84
2023/09/14 09:25:12;;;;;;;8.40;1.70;;;;;;;;;;4999575;28;20048;-86
2023/09/14 09:27:39;;;;;;;4.65;1.35;;;;;;;;;;4999077;28;20075;-88
2023/09/14 09:30:05;;;;;;;3.80;1.70;;;;;;;;;;5005882;28;20026;-88
2023/09/14 09:32:31;;;;;;;3.50;1.10;;;;;;;;;;5001819;28;20096;-89
2023/09/14 09:35:15;;;;;;;2.67;1.02;;;20.20;99.90;;;;;;5001540;28;20560;-83
2023/09/14 09:37:41;;;;;;;4.88;1.48;;;;;;;;;;5002797;28;20582;-87
2023/09/14 09:40:15;;;;;;;3.75;1.98;;;19.30;99.90;;;;;;4998336;28;20034;-83
2023/09/14 09:42:42;;;;;;;3.65;1.58;;;;;;;;;;4998165;28;20431;-84
2023/09/14 09:45:09;;;;;;;4.22;1.40;;;;;;;;;;4996939;28;20081;-83
2023/09/14 09:47:36;;;;;;;4.53;1.90;;;19.50;99.90;;;;;;4999834;28;20118;-89
2023/09/14 09:50:08;;;;;;;3.97;1.48;;;20.00;99.90;;;;;;5001503;28;20041;-82
2023/09/14 09:52:35;;;;;;;3.17;1.58;;;;;;;;;;5003854;28;20034;-88
2023/09/14 09:55:01;;;;;;;4.13;1.42;;;20.40;99.90;;;;;;4998292;28;20030;-85
2023/09/14 09:57:32;;;;;;;4.13;1.52;;;21.30;99.90;;;;;;4992958;28;20662;-86
2023/09/14 09:59:59;;;;;;;2.83;0.85;;;;;;;;;;5004111;28;20026;-87
2023/09/14 10:02:33;;;;;;;3.28;1.15;;;21.00;99.90;;;;;;4998957;28;20038;-86
2023/09/14 10:04:59;;;;;;;3.67;1.45;;;;;;;;;;4998909;28;20030;-84
2023/09/14 10:07:25;;;;;;;2.42;0.80;;;;;;;;;;4999733;28;20401;-84
2023/09/14 10:09:53;;;;;;;1.77;0.65;;;21.10;99.90;;;;;;4995832;28;20075;-84
2023/09/14 10:12:24;;;;;;;2.33;1.02;;;21.20;99.90;;;;;;4999397;28;20058;-86
2023/09/14 10:14:58;;;;;;;3.58;1.13;;;21.40;99.90;;;;;;5004986;28;20145;-85
2023/09/14 10:17:24;;;;;;;;;;;21.30;99.90;;;;;;4997006;28;20030;-86
2023/09/14 10:19:50;;;;;;;2.00;0.77;;;;;;;;;;5000635;28;20392;-82
2023/09/14 10:22:17;;;;;;;3.88;1.17;;;21.80;99.90;;;;;;5000886;28;20022;-85
2023/09/14 10:24:43;;;;;;;2.45;1.20;;;21.30;99.90;;;;;;5003417;28;20054;-89
2023/09/14 10:27:10;;;;;;;6.88;1.30;;;21.40;99.90;;;;;;5001243;28;20503;-86
2023/09/14 10:29:40;;;;;;;2.85;0.82;;;21.50;99.90;;;;;;5006157;28;20029;-88
2023/09/14 10:32:06;;;;;;;4.22;0.73;;;;;;;;;;5001637;28;20030;-89
2023/09/14 10:34:34;;;;;;;1.63;0.70;;;21.90;99.90;;;;;;4997190;28;20038;-83
2023/09/14 10:37:01;;;;;;;3.22;1.20;;;22.00;99.90;;;;;;4999164;28;20029;-82
2023/09/14 10:39:27;;;;;;;1.40;0.75;;;;;;;;;;4996705;28;20026;-82
2023/09/14 10:41:54;;;;;;;2.28;0.80;;;21.60;99.90;;;;;;4995363;28;20030;-85
2023/09/14 10:44:20;;;;;;;3.03;0.82;;;;;;;;;;4999368;28;20031;-84
2023/09/14 10:46:47;;;;;;;2.95;0.85;;;20.90;99.90;;;;;;4994252;28;20041;-83
2023/09/14 10:49:14;;;;;;;1.77;0.73;;;21.10;99.90;;;;;;4996052;28;20036;-81
2023/09/14 10:51:41;;;;;;;1.63;0.85;;;21.20;99.90;;;;;;4997841;28;21549;-83
2023/09/14 10:54:07;;;;;;;3.65;0.98;;;;;;;;;;5000049;28;20552;-87
2023/09/14 10:56:34;;;;;;;2.47;0.90;;;;;;;;;;4999350;28;20089;-81
2023/09/14 10:59:08;;;;;;;2.58;1.30;;;21.70;99.90;;;;;;4997050;28;20060;-85
2023/09/14 11:01:45;;;;;;;1.83;0.70;;;21.80;99.90;;;;;;4997400;28;20516;-86
2023/09/14 11:04:18;;;;;;;1.45;0.70;;;21.70;99.90;;;;;;4996513;28;20396;-87
2023/09/14 11:06:44;;;;;;;2.13;1.00;;;;;;;;;;4999512;28;20034;-86
2023/09/14 11:09:14;;;;;;;2.78;0.90;;;23.40;99.90;;;;;;5002410;28;20048;-87
2023/09/14 11:11:44;;;;;;;2.70;1.02;;;22.10;99.90;;;;;;5011338;28;20037;-87
2023/09/14 11:14:11;;;;;;;11.35;1.63;;;22.00;99.90;;;;;;4997997;28;20476;-84
2023/09/14 11:16:57;;;;;;;2.55;1.10;;;22.10;99.90;;;;;;4997390;28;20084;-85
2023/09/14 11:19:29;;;;;;;1.85;0.73;;;22.60;99.90;;;;;;4999836;28;20399;-85
2023/09/14 11:21:55;;;;;;;3.85;1.00;;;;;;;;;;4996930;28;20022;-81
2023/09/14 11:24:35;;;;;;;1.70;0.70;;;22.40;99.90;;;;;;4994609;28;20030;-84
2023/09/14 11:27:01;;;;;;;2.45;1.08;;;22.30;99.90;;;;;;4997613;28;20401;-83
2023/09/14 11:29:30;;;;;;;2.03;0.82;;;22.10;99.90;;;;;;4994138;28;20026;-82
2023/09/14 11:32:07;;;;;;;1.52;0.50;;;22.10;99.90;;;;;;5000772;28;20032;-87
2023/09/14 11:34:36;;;;;;;1.13;0.57;;;22.10;99.90;;;;;;4999016;28;20036;-83
2023/09/14 11:37:03;;;;;;;3.15;0.75;;;22.10;99.90;;;;;;4999733;28;20034;-87
2023/09/14 11:39:30;;;;;;;4.30;1.00;;;22.30;99.90;;;;;;4998419;28;20554;-82
2023/09/14 11:42:04;;;;;;;1.27;0.68;;;22.30;99.90;;;;;;5000729;28;20027;-84
2023/09/14 11:44:31;;;;;;;2.83;1.05;;;;;;;;;;5009584;28;20018;-90
2023/09/14 11:46:59;;;;;;;3.58;0.95;;;22.60;99.90;;;;;;5007484;28;20037;-82
2023/09/14 11:49:31;;;;;;;2.10;0.80;;;22.40;99.90;;;;;;5007914;28;20056;-82
2023/09/14 11:51:57;;;;;;;1.92;0.80;;;;;;;;;;5001758;28;20038;-83
2023/09/14 11:54:29;;;;;;;2.70;0.70;;;22.10;99.90;;;;;;5003431;28;20054;-79
2023/09/14 11:56:59;;;;;;;1.83;0.73;;;22.10;99.90;;;;;;5017386;28;20027;-88
2023/09/14 11:59:29;;;;;;;1.30;0.55;;;21.80;99.90;;;;;;5028223;28;20049;-92
2023/09/14 12:01:55;;;;;;;2.55;0.60;;;;;;;;;;5013492;28;20030;-86
2023/09/14 12:04:25;;;;;;;3.40;1.05;;;22.00;99.90;;;;;;5002514;28;20030;-84
2023/09/14 12:06:51;;;;;;;1.25;0.65;;;22.40;99.90;;;;;;5003659;28;20064;-83
2023/09/14 12:09:16;;;;;;;3.50;0.90;;;22.50;99.90;;;;;;5005243;28;20453;-81
2023/09/14 12:11:44;;;;;;;1.33;0.80;;;;;;;;;;5001370;28;20382;-88
2023/09/14 12:14:10;;;;;;;1.63;1.08;;;;;;;;;;5000934;28;20098;-89
2023/09/14 12:16:38;;;;;;;1.48;0.50;;;22.70;99.90;;;;;;5002550;28;20484;-84
2023/09/14 12:19:04;;;;;;;1.33;0.68;;;;;;;;;;4995022;28;20053;-83
2023/09/14 12:21:30;;;;;;;1.58;0.80;;;;;;;;;;4996905;28;20030;-82
2023/09/14 12:23:56;;;;;;;1.40;0.65;;;;;;;;;;5003617;28;20106;-80
2023/09/14 12:26:22;;;;;;;1.77;0.75;;;;;;;;;;4999961;28;20130;-83
2023/09/14 12:28:52;;;;;;;1.17;0.60;;;22.80;99.90;;;;;;5004737;28;20062;-88
2023/09/14 12:31:19;;;;;;;1.85;0.95;;;;;;;;;;4997534;28;20393;-87
2023/09/14 12:33:45;;;;;;;5.72;0.43;;;;;;;;;;5000875;28;20030;-86
2023/09/14 12:36:11;;;;;;;3.55;0.73;;;;;;;;;;5002610;28;20129;-90
2023/09/14 12:38:37;;;;;;;1.20;0.65;;;23.30;99.90;;;;;;4996784;28;20026;-84
2023/09/14 12:41:05;;;;;;;1.70;0.50;;;;;;;;;;5003428;28;20037;-83
2023/09/14 12:43:33;;;;;;;1.67;0.30;;;23.10;99.90;;;;;;5001557;28;20053;-84
2023/09/14 12:45:59;;;;;;;1.48;0.63;;;22.60;99.90;;;;;;5001700;28;20329;-82
2023/09/14 12:48:28;;;;;;;1.05;0.43;;;23.20;99.90;;;;;;5006475;28;20058;-84
2023/09/14 12:50:56;;;;;;;1.35;0.50;;;23.00;99.90;;;;;;4998575;28;20034;-88
2023/09/14 12:53:25;;;;;;;0.68;0.30;;;22.50;99.90;;;;;;4998173;28;20033;-83
2023/09/14 12:55:53;;;;;;;2.22;0.50;;;;;;;;;;5001675;28;20233;-85
2023/09/14 12:58:22;;;;;;;1.35;0.50;;;22.10;99.90;;;;;;4998650;28;20065;-81
2023/09/14 13:00:51;;;;;;;1.40;0.40;;;22.10;99.90;;;;;;4999127;28;20027;-82
2023/09/14 13:03:19;;;;;;;1.60;0.60;;;22.00;99.90;;;;;;4997889;28;20033;-84
2023/09/14 13:05:47;;;;;;;2.78;0.40;;;;;;;;;;5001431;28;20022;-85
2023/09/14 13:08:12;;;;;;;1.42;0.40;;;21.10;99.90;;;;;;5001566;28;20511;-83
2023/09/14 13:10:39;;;;;;;1.35;0.52;;;;;;;;;;5000564;28;20062;-87
2023/09/14 13:13:09;;;;;;;0.80;0.40;;;21.60;99.90;;;;;;5001627;28;20034;-87
2023/09/14 13:15:43;;;;;;;3.03;0.85;;;21.90;99.90;;;;;;4998833;28;20038;-81
2023/09/14 13:18:10;;;;;;;2.30;0.70;;;21.80;99.90;;;;;;5006901;28;20037;-82
2023/09/14 13:20:37;;;;;;;0.98;0.40;;;22.10;99.90;;;;;;5003891;28;20030;-83
2023/09/14 13:23:05;;;;;;;1.23;0.52;;;21.80;99.90;;;;;;4993337;28;20863;-82
2023/09/14 13:25:31;;;;;;;0.75;0.32;;;;;;;;;;4999288;28;20045;-82
2023/09/14 13:27:59;;;;;;;1.27;0.63;;;21.90;99.90;;;;;;5003328;28;20022;-84
2023/09/14 13:30:28;;;;;;;1.02;0.57;;;;;;;;;;4996818;28;20061;-83
2023/09/14 13:32:57;;;;;;;0.95;0.50;;;;;;;;;;5007728;28;20110;-81
2023/09/14 13:35:23;;;;;;;1.27;0.40;;;22.00;99.90;;;;;;5003886;28;20038;-82
2023/09/14 13:37:51;;;;;;;6.07;0.90;;;;;;;;;;4999553;28;20034;-83
2023/09/14 13:42:44;;;;;;;1.35;0.43;;;;;;;;;;5000784;28;20072;-87
2023/09/14 13:45:10;;;;;;;3.10;0.50;;;21.70;99.90;;;;;;4998675;28;20042;-85
2023/09/14 13:47:36;;;;;;;1.75;0.55;;;;;;;;;;5002917;28;20030;-85
2023/09/14 13:50:04;;;;;;;0.80;0.38;;;21.60;99.90;;;;;;4998657;28;20084;-87
2023/09/14 13:52:30;;;;;;;0.75;0.45;;;;;;;;;;5005307;28;20042;-83
2023/09/14 13:54:56;;;;;;;1.38;0.38;;;;;;;;;;5002295;28;20084;-83
2023/09/14 13:57:22;;;;;;;1.00;0.50;;;;;;;;;;4999308;28;20021;-85
2023/09/14 13:59:49;;;;;;;0.98;0.43;;;;;;;;;;4993358;28;20469;-85
2023/09/14 14:02:18;;;;;;;1.38;0.50;;;22.20;99.90;;;;;;5001197;28;20392;-83